Hauptseite
METAR-TAF:

METAR-TAF

Flughäfen :

Flughafen Mauritius

Mauritius, Mauritius

Breite: 20-26S, Länge: 057-40E, Höhe: 55 m

Beobachtung

Neuester Wetterbericht von vor 41 Minuten, um 14:00 UTC
Wind 6 kt aus Südost
Temperatur 28°C
Luftfeuchtigkeit 70%
Luftdruck 1012 hPa
Sichtweite 10 km oder mehr
Durchbrochene Bewölkung in der Höhe von 1700 ft
Durchbrochene Bewölkung in der Höhe von 5000 ft

METAR: FIMP 201400Z 13006KT 9999 BKN017 BKN050 28/22 Q1012

Zeit: 18:41 (14:41 UTC)

Prognose

Neuester Wetterbericht von vor 3 Stunden und 6 Minuten, um 11:35 UTC
Gültige Prognose vom 20 um 12 UTC bis 21 um 18 UTC
Wind 8 kt aus Ost/Südost
Sichtweite 10 km oder mehr
Leicht bewölkt in der Höhe von 1800 ft
Zeitweise
vom 20 um 12 UTC bis 21 um 14 UTC
Sichtweite: 7000 m
Durchbrochene Bewölkung in der Höhe von 1600 ft
Regenschauer

TAF: FIMP 201135Z 2012/2118 12008KT 9999 FEW018 TEMPO 2012/2114 7000 -SHRA BKN016

Wetterbeobachtungen und Prognosen von mehr als 4000 Flughäfen (METAR und TAF Bericht).

Die verfügbaren Stationen werden durch gelbe und rote Markierungen auf der Karte dargestellt.

Führen Sie die Maus auf sie, um den Namen der Station zu sehen.

Darauf klicken, um die Beobachtung von Wetterbeobachtungen und Prognosen zu sehen.

Um die Karte zu ändern : klicken Sie auf den grünen Tasten mit einem schwarzen Kreuz Zum Vergrößern, auf den grünen Button mit einem Gedankenstrich zu verkleinern, oder auf die grünen Pfeile für benachbarte Karten.


METAR-TAF: